Date,TemperatureHighF,TemperatureAvgF,TemperatureLowF,DewpointHighF,DewpointAvgF,DewpointLowF,HumidityHigh,HumidityAvg,HumidityLow,PressureMaxIn,PressureMinIn,WindSpeedMaxMPH,WindSpeedAvgMPH,GustSpeedMaxMPH,PrecipitationSumIn
2013-1-1,48,42,36,47,39,34,97,88,74,30.05,29.50,8,2,8,0.09
2013-1-2,52,44,34,50,42,33,98,95,89,30.33,30.05,6,1,6,0.01
2013-1-3,53,51,48,50,49,47,98,94,90,30.62,30.33,6,1,6,0.00
2013-1-4,51,50,47,48,46,44,94,88,82,30.65,30.60,8,2,8,0.00
2013-1-5,52,48,42,50,46,42,98,94,87,30.60,30.51,7,1,7,0.01
2013-1-6,47,45,42,46,44,41,99,98,94,30.52,30.39,2,0,2,0.01
2013-1-7,48,46,45,46,45,44,97,94,91,30.39,30.25,6,1,6,0.00
2013-1-8,52,50,47,49,47,45,98,91,85,30.27,30.18,6,1,6,0.05
2013-1-9,49,43,32,49,42,31,99,94,80,30.18,30.07,6,0,6,0.09
2013-1-10,39,36,30,37,34,30,99,96,91,30.07,29.93,4,0,4,0.00
2013-1-11,43,36,31,40,35,30,99,95,85,30.08,29.97,4,0,4,0.01
2013-1-12,41,38,33,38,34,30,99,87,64,29.97,29.84,10,2,10,0.17
2013-1-13,39,36,32,36,31,28,89,83,75,30.14,29.95,9,2,9,0.00
2013-1-14,38,34,31,36,32,28,98,94,88,30.10,29.63,7,1,7,0.21
2013-1-15,36,33,26,33,31,25,98,91,86,29.87,29.63,10,2,10,0.00
2013-1-16,34,29,25,31,28,24,99,96,89,30.02,29.84,4,0,4,0.00
2013-1-17,36,31,23,33,28,22,98,91,78,30.08,29.88,4,0,4,0.01
2013-1-18,35,31,29,30,28,27,95,89,77,29.88,29.43,10,3,10,0.00
2013-1-19,34,32,30,32,30,27,95,91,85,29.48,29.40,12,3,12,0.00
2013-1-20,32,31,30,31,29,27,97,93,85,29.47,29.28,12,2,12,0.00
2013-1-21,35,31,25,32,30,24,97,94,86,29.50,29.26,4,0,4,0.02
2013-1-22,37,31,22,36,29,21,99,93,81,29.68,29.50,12,2,12,0.17
2013-1-23,37,36,35,33,32,31,91,87,83,29.81,29.68,12,2,12,0.15
2013-1-24,36,35,33,32,30,27,93,84,68,30.14,29.81,6,1,6,0.06
2013-1-25,38,34,30,36,31,27,94,86,79,30.12,29.57,12,2,12,0.02
2013-1-26,47,41,36,44,39,35,98,91,79,29.83,29.54,10,2,10,0.18
2013-1-27,50,46,39,49,41,35,97,84,59,29.62,29.27,17,4,17,0.25
2013-1-28,51,44,34,49,41,33,97,90,81,29.82,29.51,10,3,10,0.13
2013-1-29,56,53,49,54,51,46,98,93,83,29.65,29.55,9,4,9,0.07
2013-1-30,54,50,44,53,44,38,97,81,59,30.04,29.51,17,5,17,0.22
2013-1-31,51,48,45,46,42,39,95,80,65,30.05,29.79,17,3,17,0.11
2013-2-1,46,42,37,43,40,36,97,91,80,29.85,29.45,7,1,7,0.25
2013-2-2,42,38,29,38,32,26,95,79,64,30.25,29.60,10,3,10,0.00
2013-2-3,49,40,28,46,38,26,94,89,83,30.26,29.90,8,1,8,0.00
2013-2-4,51,48,43,47,41,36,92,76,57,29.94,29.71,14,4,14,0.00
2013-2-5,43,40,36,40,33,28,93,77,55,29.72,29.33,18,5,18,0.13
2013-2-6,44,40,35,39,34,28,93,79,67,30.06,29.36,24,5,24,0.04
2013-2-7,42,37,33,36,32,27,96,81,66,30.11,29.99,9,2,9,0.02
2013-2-8,43,37,31,37,33,29,97,86,67,30.15,30.03,7,1,7,0.01
2013-2-9,39,37,34,37,35,31,96,92,84,30.16,29.86,9,0,9,0.03
2013-2-10,41,38,33,40,37,32,98,96,94,29.86,29.26,8,2,8,0.48
2013-2-11,35,34,33,34,33,32,98,97,95,29.78,29.28,7,2,7,0.22
2013-2-12,36,35,34,33,31,28,96,85,77,30.14,29.77,7,2,7,0.00
2013-2-13,40,35,33,38,30,25,95,82,66,30.20,29.97,8,2,8,0.01
2013-2-14,53,46,40,47,42,36,98,87,67,29.98,29.73,12,3,12,0.06
2013-2-15,52,41,33,41,37,32,98,85,58,30.20,29.98,7,1,7,0.00
2013-2-16,51,43,34,41,37,32,96,82,56,30.24,30.19,4,0,4,0.00
2013-2-17,50,39,28,41,34,28,99,86,52,30.20,30.09,9,1,9,0.00
2013-2-18,48,38,30,39,34,29,99,87,60,30.14,30.09,7,1,7,0.01
2013-2-19,49,35,26,39,31,25,99,87,59,30.13,30.05,2,0,2,0.00
2013-2-20,42,38,34,38,33,28,98,84,66,30.25,30.10,13,3,13,0.02
2013-2-21,37,35,33,28,25,22,74,67,59,30.26,30.16,14,4,14,0.00
2013-2-22,36,34,32,27,24,22,76,68,62,30.16,30.09,12,4,12,0.00
2013-2-23,37,34,32,30,27,24,86,75,62,30.21,30.08,12,3,12,0.00
2013-2-24,36,35,33,30,29,27,87,79,72,30.27,30.19,10,3,10,0.00
2013-2-25,40,38,35,36,34,29,91,86,80,30.38,30.25,13,4,13,0.00
2013-2-26,41,39,37,39,37,35,96,94,90,30.56,30.37,10,3,10,0.02
2013-2-27,43,39,36,37,35,33,95,86,73,30.56,30.48,12,4,12,0.00
2013-2-28,47,40,35,39,35,32,92,84,72,30.48,30.33,8,2,8,0.00
2013-3-1,44,40,37,41,35,31,97,83,67,30.40,30.35,12,3,12,0.03
2013-3-2,42,37,28,34,31,26,95,79,70,30.40,30.27,7,1,7,0.00
2013-3-3,46,36,26,38,33,24,97,87,67,30.28,30.10,10,1,10,0.00
2013-3-4,50,40,32,39,35,30,96,84,63,30.10,29.73,6,2,6,0.00
2013-3-5,61,44,29,46,38,28,99,81,55,29.73,29.57,6,0,6,0.01
2013-3-6,57,50,43,46,43,39,91,79,66,29.57,29.50,4,1,4,0.02
2013-3-7,50,48,45,49,46,44,98,97,91,29.51,29.37,5,0,5,0.25
2013-3-8,50,49,47,50,48,46,99,98,98,29.54,29.37,4,0,4,0.34
2013-3-9,47,43,38,46,42,35,98,94,86,29.67,29.53,8,1,8,0.02
2013-3-10,39,37,34,35,33,29,90,85,80,29.74,29.65,16,4,16,0.00
2013-3-11,34,32,29,29,25,21,84,76,63,29.75,29.71,20,8,20,0.00
2013-3-12,41,34,28,33,24,18,87,67,45,29.82,29.73,15,6,15,0.00
2013-3-13,46,37,31,32,30,27,93,76,50,29.95,29.78,12,2,12,0.00
2013-3-14,46,36,25,36,27,24,98,73,44,30.02,29.91,6,1,6,0.00
2013-3-15,49,43,37,43,39,28,94,85,69,29.91,29.55,12,3,12,0.13
2013-3-16,48,44,42,44,41,38,95,90,83,29.55,29.28,16,4,16,0.27
2013-3-17,45,40,31,42,38,30,97,93,84,29.32,29.16,8,1,8,0.17
2013-3-18,48,37,28,43,36,28,99,96,81,29.36,29.21,4,0,4,0.12
2013-3-19,49,40,33,40,37,31,97,89,65,29.51,29.35,6,1,6,0.00
2013-3-20,47,39,36,39,36,34,96,89,72,30.00,29.50,7,2,7,0.00
2013-3-21,45,39,32,36,34,30,95,81,66,30.02,29.91,12,3,12,0.04
2013-3-22,43,39,36,37,35,33,94,88,77,29.91,29.72,14,5,14,0.25
2013-3-23,38,35,33,36,34,32,97,95,92,29.86,29.74,9,4,9,0.32
2013-3-24,35,33,32,33,29,25,94,84,67,29.94,29.85,15,4,15,0.00
2013-3-25,35,34,33,27,26,24,75,72,67,29.96,29.91,13,4,13,0.00
2013-3-26,35,34,33,28,26,25,78,71,66,29.93,29.87,12,3,12,0.00
2013-3-27,42,35,31,29,26,24,84,70,57,29.88,29.84,9,3,9,0.00
2013-3-28,41,35,28,31,26,22,95,71,53,29.95,29.84,9,2,9,0.00
2013-3-29,45,34,27,29,26,23,88,73,48,29.92,29.79,12,1,12,0.00
2013-3-30,44,37,33,33,29,27,85,73,55,29.97,29.78,10,2,10,0.00
2013-3-31,44,36,26,31,27,24,94,72,49,29.97,29.89,9,2,9,0.00
2013-4-1,45,37,33,31,28,24,83,69,49,29.89,29.83,13,3,14,0.00
2013-4-2,48,39,31,32,25,18,88,61,34,30.05,29.88,12,4,12,0.00
2013-4-3,41,37,32,31,27,24,89,68,55,30.06,29.99,20,4,20,0.00
2013-4-4,38,36,33,34,30,25,94,78,62,29.99,29.90,16,5,16,0.03
2013-4-5,48,40,35,32,29,23,84,66,41,30.11,29.89,15,6,15,0.00
2013-4-6,52,41,30,35,30,26,94,67,38,30.28,30.11,10,2,10,0.00
2013-4-7,53,40,27,35,28,22,96,65,32,30.28,29.88,7,1,7,0.00
2013-4-8,52,44,39,36,32,28,84,66,41,29.88,29.55,12,3,12,0.00
2013-4-9,50,44,38,44,40,36,95,87,74,29.54,29.38,12,2,12,0.07
2013-4-10,52,44,37,43,40,35,96,84,68,29.71,29.42,9,2,9,0.24
2013-4-11,55,47,43,49,44,42,97,91,73,29.49,29.35,9,2,9,0.13
2013-4-12,53,48,43,50,46,42,97,93,80,29.74,29.29,12,2,12,0.51
2013-4-13,53,48,37,51,46,36,98,92,74,29.91,29.74,12,2,12,0.19
2013-4-14,69,59,52,53,51,47,97,76,54,29.96,29.87,12,3,12,0.00
2013-4-15,62,55,48,51,48,45,89,78,63,30.06,29.94,8,2,8,0.00
2013-4-16,64,55,48,50,46,43,94,75,46,30.09,29.90,9,3,9,0.00
2013-4-17,66,56,48,53,50,46,96,81,59,30.09,29.77,12,3,12,0.00
2013-4-18,60,52,46,48,42,34,90,69,48,30.08,29.79,13,5,13,0.13
2013-4-19,58,49,42,44,40,36,90,72,44,30.50,30.08,10,3,10,0.00
2013-4-20,58,46,33,40,34,29,98,67,34,30.55,30.36,8,2,8,0.00
2013-4-21,61,46,30,42,36,29,97,69,37,30.36,30.03,7,1,7,0.00
2013-4-22,61,51,43,48,44,40,96,79,50,30.03,29.95,7,2,7,0.00
2013-4-23,72,59,48,51,49,47,96,71,45,30.21,29.98,7,2,7,0.00
2013-4-24,68,58,46,56,51,44,96,79,61,30.26,30.19,8,1,8,0.01
2013-4-25,75,60,50,58,52,48,98,76,45,30.25,30.01,9,2,9,0.01
2013-4-26,57,49,42,49,39,29,95,71,40,30.03,29.90,12,2,12,0.13
2013-4-27,54,44,36,41,37,33,92,77,57,30.10,29.89,8,2,8,0.03
2013-4-28,55,45,31,40,35,29,98,70,41,30.10,29.90,8,2,8,0.00
2013-4-29,58,51,41,44,38,34,89,64,43,30.17,29.88,9,3,9,0.00
2013-4-30,61,49,36,42,38,33,95,68,38,30.31,30.17,12,2,12,0.00
2013-5-1,64,51,38,44,37,31,93,65,29,30.31,30.15,7,2,7,0.00
2013-5-2,67,52,36,37,31,18,84,49,19,30.22,30.15,12,2,12,0.00
2013-5-3,70,54,36,46,40,34,96,64,32,30.18,30.03,8,2,8,0.00
2013-5-4,63,54,45,52,43,37,88,68,40,30.13,29.97,13,3,13,0.02
2013-5-5,68,56,41,53,47,39,94,73,53,30.19,30.13,6,1,6,0.00
2013-5-6,74,61,50,53,49,44,91,66,41,30.17,30.04,5,1,5,0.00
2013-5-7,75,60,43,52,46,41,97,64,36,30.08,29.85,10,1,10,0.00
2013-5-8,65,57,49,56,50,45,95,80,61,29.85,29.69,8,2,8,0.04
2013-5-9,60,51,43,49,44,40,93,77,51,29.83,29.67,15,4,15,0.06
2013-5-10,64,55,48,51,47,43,90,76,49,29.93,29.68,14,4,14,0.01
2013-5-11,57,50,43,51,44,40,97,82,58,29.92,29.79,18,3,18,0.17
2013-5-12,62,50,41,51,44,39,94,80,45,30.01,29.90,12,3,12,0.02
2013-5-13,61,53,47,51,44,37,96,71,44,29.91,29.80,13,4,13,0.06
2013-5-14,54,48,45,48,44,40,96,84,61,29.82,29.22,13,2,13,0.31
2013-5-15,60,48,42,45,41,38,93,77,52,29.55,29.15,15,3,15,0.06
2013-5-16,63,50,35,48,40,34,99,73,39,29.56,29.47,5,0,5,0.00
2013-5-17,55,49,39,46,43,37,98,82,68,29.81,29.56,7,1,7,0.00
2013-5-18,62,53,47,47,45,43,87,74,56,29.80,29.71,8,1,8,0.00
2013-5-19,69,56,44,52,48,42,97,76,50,29.89,29.77,7,1,7,0.00
2013-5-20,63,58,52,58,54,49,93,88,82,29.90,29.83,8,2,8,0.02
2013-5-21,61,56,50,57,51,47,92,83,67,30.07,29.89,8,2,8,0.00
2013-5-22,60,53,47,49,45,36,91,75,52,30.09,30.01,12,2,12,0.00
2013-5-23,55,48,42,43,38,33,82,69,50,30.01,29.88,13,3,13,0.00
2013-5-24,50,44,42,48,41,37,94,87,80,30.02,29.62,12,4,12,0.26
2013-5-25,61,51,40,46,41,39,96,73,45,30.16,30.02,8,2,8,0.00
2013-5-26,70,56,39,45,41,36,97,61,34,30.13,29.96,9,2,9,0.00
2013-5-27,66,55,40,47,41,37,89,63,36,29.96,29.62,12,2,12,0.00
2013-5-28,54,51,48,52,48,43,97,91,69,29.62,29.48,2,0,2,0.77
2013-5-29,58,51,44,53,49,43,97,91,74,29.76,29.56,8,1,8,0.02
2013-5-30,61,55,52,55,52,50,98,90,77,29.99,29.74,8,2,8,0.17
2013-5-31,74,61,52,58,53,49,91,76,52,30.11,29.99,10,2,10,0.00
2013-6-1,67,58,50,52,47,43,84,67,45,30.30,30.12,7,2,7,0.00
2013-6-2,68,57,45,48,44,42,93,65,42,30.43,30.30,8,1,8,0.00
2013-6-3,69,56,42,49,45,41,97,68,41,30.48,30.40,9,2,9,0.00
2013-6-4,72,59,43,49,44,38,86,62,39,30.42,30.20,13,3,13,0.00
2013-6-5,73,59,47,52,48,44,89,70,43,30.22,30.08,8,2,8,0.00
2013-6-6,75,61,47,56,49,44,91,69,49,30.19,30.12,9,2,9,0.00
2013-6-7,72,59,49,56,50,44,94,72,51,30.22,30.16,10,3,10,0.21
2013-6-8,68,57,48,51,47,44,88,70,51,30.21,30.06,13,4,13,0.00
2013-6-9,60,55,51,49,47,44,82,74,64,30.07,29.96,9,3,9,0.00
2013-6-10,63,55,49,49,46,43,85,71,57,30.00,29.95,4,1,4,0.00
2013-6-11,63,57,46,60,53,43,93,86,80,29.97,29.89,7,1,7,0.01
2013-6-12,64,60,57,60,57,53,95,89,76,29.90,29.79,12,3,12,0.06
2013-6-13,65,58,53,56,52,46,92,79,62,30.04,29.78,12,4,12,0.00
2013-6-14,69,58,47,54,49,42,92,74,40,30.06,29.79,8,2,8,0.00
2013-6-15,64,57,51,56,51,45,94,80,53,29.88,29.69,11,3,11,0.20
2013-6-16,67,58,52,54,50,48,90,76,57,29.96,29.88,4,1,4,0.01
2013-6-17,71,62,53,55,51,49,86,69,50,29.97,29.90,9,2,9,0.00
2013-6-18,71,64,56,63,58,52,94,81,66,29.97,29.89,4,0,4,0.00
2013-6-19,82,69,58,65,60,56,97,77,49,29.97,29.90,7,1,7,0.01
2013-6-20,72,65,59,64,60,56,92,83,71,29.95,29.78,6,1,6,0.00
2013-6-21,74,63,57,62,58,54,93,84,63,29.87,29.76,6,1,6,0.00
2013-6-22,66,58,53,58,53,51,97,84,68,29.86,29.66,13,3,13,0.10
2013-6-23,64,58,53,54,52,49,93,80,66,30.02,29.66,13,4,13,0.03
2013-6-24,64,57,51,50,47,44,89,70,51,30.29,30.02,12,2,12,0.00
2013-6-25,72,60,48,51,47,43,93,67,36,30.41,30.29,10,1,10,0.00
2013-6-26,72,61,47,54,50,45,96,69,46,30.43,30.35,6,1,6,0.00
2013-6-27,70,60,52,54,50,47,93,73,50,30.37,30.18,12,2,12,0.03
2013-6-28,70,62,54,64,58,52,96,89,75,30.18,30.04,9,2,9,0.08
2013-6-29,74,64,56,59,51,46,87,64,42,30.24,30.07,8,2,8,0.00
2013-6-30,82,69,58,62,57,52,95,69,39,30.24,30.06,12,3,12,0.00
2013-7-1,70,63,56,53,51,47,86,66,47,30.08,29.98,9,2,9,0.00
2013-7-2,64,58,52,55,52,48,87,78,63,29.99,29.66,9,1,9,0.00
2013-7-3,70,62,58,60,57,54,97,82,62,30.01,29.61,10,2,10,0.06
2013-7-4,77,65,54,64,58,51,92,77,58,30.25,30.01,6,2,6,0.00
2013-7-5,82,67,52,60,55,50,96,69,40,30.41,30.25,5,1,5,0.00
2013-7-6,85,69,52,62,56,50,96,68,38,30.41,30.33,5,1,5,0.00
2013-7-7,87,73,57,62,58,54,97,65,34,30.50,30.40,7,1,7,0.00
2013-7-8,83,70,57,62,57,53,93,65,42,30.51,30.41,12,3,12,0.00
2013-7-9,82,69,54,55,49,42,84,53,25,30.44,30.25,7,2,7,0.00
2013-7-10,78,65,53,60,54,46,89,67,47,30.28,30.23,8,3,8,0.00
2013-7-11,76,62,52,54,49,45,84,64,41,30.30,30.21,9,2,9,0.00
2013-7-12,80,65,53,59,54,49,87,70,45,30.30,30.20,8,1,8,0.00
2013-7-13,90,74,56,68,61,54,95,68,39,30.24,30.19,5,1,5,0.00
2013-7-14,86,74,60,66,60,54,94,64,38,30.24,30.16,9,1,9,0.00
2013-7-15,90,75,60,59,51,42,84,49,21,30.22,30.16,6,1,6,0.00
2013-7-16,90,75,60,63,58,55,91,59,34,30.21,30.14,5,0,5,0.00
2013-7-17,92,76,61,62,58,55,85,58,32,30.26,30.18,4,0,4,0.00
2013-7-18,86,74,62,62,58,54,85,61,38,30.31,30.24,9,2,9,0.00
2013-7-19,85,72,56,61,56,50,81,59,39,30.30,30.19,9,2,9,0.00
2013-7-20,76,68,61,62,59,55,89,75,58,30.24,30.14,10,2,10,0.00
2013-7-21,82,70,63,63,60,54,85,71,51,30.17,30.02,7,2,7,0.00
2013-7-22,93,76,63,68,62,59,93,66,36,30.05,29.93,6,1,6,0.01
2013-7-23,85,73,65,73,65,59,95,77,54,29.94,29.88,6,0,6,0.24
2013-7-24,84,70,59,63,59,56,91,71,43,29.97,29.91,6,1,6,0.00
2013-7-25,80,70,61,67,61,57,97,77,49,29.93,29.86,8,1,8,0.39
2013-7-26,81,69,55,61,57,53,96,69,44,29.92,29.83,5,0,5,0.00
2013-7-27,85,67,55,67,58,52,96,76,37,29.85,29.57,5,0,5,0.32
2013-7-28,78,67,58,62,59,56,96,76,52,29.78,29.59,12,2,12,0.19
2013-7-29,75,66,59,62,59,56,96,80,56,29.96,29.77,9,2,9,0.04
2013-7-30,72,64,58,66,60,57,96,90,72,29.97,29.85,9,1,9,0.18
2013-7-31,76,67,61,66,62,58,92,83,70,29.99,29.92,6,2,6,0.01
2013-8-1,92,77,59,70,64,58,97,68,36,29.94,29.67,10,2,10,0.00
2013-8-2,80,70,63,66,61,54,91,74,47,29.83,29.74,8,2,8,0.04
2013-8-3,77,66,58,60,57,53,96,74,48,30.09,29.80,7,2,7,0.04
2013-8-4,76,66,56,60,57,54,98,75,51,30.11,30.02,12,2,12,0.00
2013-8-5,75,65,60,64,59,56,96,82,56,30.02,29.75,8,1,8,0.34
2013-8-6,76,63,50,59,53,49,99,74,41,30.03,29.91,5,0,5,0.01
2013-8-7,75,64,54,58,52,48,96,68,43,30.03,29.90,7,1,7,0.00
2013-8-8,77,64,49,58,53,47,97,70,38,30.12,30.03,7,1,7,0.00
2013-8-9,76,67,60,63,56,49,95,69,43,30.18,30.02,9,2,9,0.02
2013-8-10,75,64,55,53,50,47,84,62,37,30.20,30.12,8,1,8,0.00
2013-8-11,76,66,60,59,53,48,83,64,40,30.13,30.00,9,2,9,0.00
2013-8-12,72,63,56,55,50,44,87,64,38,30.09,29.99,10,2,10,0.00
2013-8-13,72,59,49,57,51,46,95,75,44,30.21,30.09,8,1,8,0.01
2013-8-14,74,62,48,60,55,48,98,81,53,30.22,30.14,6,1,6,0.04
2013-8-15,75,67,61,66,62,58,97,84,65,30.14,30.00,7,1,7,0.02
2013-8-16,74,66,61,65,62,58,95,87,72,30.00,29.93,6,1,6,0.06
2013-8-17,69,62,56,61,58,55,97,86,67,29.98,29.73,8,2,8,0.02
2013-8-18,74,66,60,62,58,53,95,77,51,29.90,29.72,8,2,8,0.00
2013-8-19,75,64,52,56,51,48,94,67,42,30.31,29.90,10,2,10,0.00
2013-8-20,78,64,50,58,52,48,95,68,40,30.36,30.28,6,1,6,0.00
2013-8-21,82,66,51,59,54,50,97,70,39,30.30,30.14,5,1,5,0.02
2013-8-22,75,65,61,67,62,59,98,91,71,30.15,30.05,4,0,4,0.31
2013-8-23,82,69,58,64,60,56,99,76,46,30.05,29.84,8,1,8,0.01
2013-8-24,66,63,57,64,61,55,96,93,85,29.86,29.81,7,1,7,0.54
2013-8-25,76,63,55,65,59,53,98,86,57,30.04,29.83,9,2,9,0.17
2013-8-26,79,66,55,64,57,49,96,74,44,30.09,30.03,5,1,5,0.00
2013-8-27,76,61,49,61,52,48,98,76,42,30.12,30.04,4,0,4,0.00
2013-8-28,78,63,50,60,53,48,97,74,40,30.22,30.11,4,0,4,0.00
2013-8-29,77,65,55,58,56,53,94,74,48,30.19,30.12,9,1,9,0.00
2013-8-30,78,66,56,63,59,55,96,78,51,30.14,30.04,8,1,8,0.00
2013-8-31,71,63,53,60,49,42,95,64,39,30.40,30.12,12,1,12,0.00
2013-9-1,71,59,46,53,48,43,94,70,46,30.44,30.33,9,2,9,0.00
2013-9-2,79,64,51,60,55,49,94,75,51,30.35,30.27,7,2,7,0.00
2013-9-3,78,65,54,64,59,53,98,81,55,30.35,30.26,4,0,4,0.00
2013-9-4,84,67,52,64,57,51,99,75,41,30.26,29.99,6,1,6,0.00
2013-9-5,86,69,55,66,58,52,98,72,43,29.99,29.75,6,1,6,0.00
2013-9-6,64,59,54,60,54,50,95,84,68,29.83,29.71,5,1,5,0.18
2013-9-7,66,57,49,56,50,47,95,80,56,30.04,29.82,9,1,9,0.08
2013-9-8,64,52,44,54,49,43,98,88,58,30.07,30.03,10,1,10,0.14
2013-9-9,56,52,44,55,51,43,98,96,94,30.05,29.96,4,0,4,0.26
2013-9-10,63,55,47,53,49,46,97,82,60,30.15,30.05,9,2,9,0.01
2013-9-11,63,57,53,54,51,48,96,80,64,30.17,30.11,7,2,7,0.10
2013-9-12,66,59,54,59,56,53,98,91,75,30.12,30.07,4,0,4,0.09
2013-9-13,68,62,58,65,61,57,98,97,88,30.07,29.86,6,0,6,0.89
2013-9-14,58,52,45,56,50,44,98,93,80,30.08,29.87,8,1,8,0.12
2013-9-15,60,52,41,59,49,40,99,91,63,30.07,29.55,9,2,9,0.11
2013-9-16,59,52,46,50,43,40,89,72,50,29.65,29.58,14,3,14,0.00
2013-9-17,58,52,45,57,49,42,98,88,71,29.65,29.34,5,1,5,0.19
2013-9-18,61,55,48,55,49,43,96,81,59,29.87,29.40,8,2,8,0.01
2013-9-19,61,53,44,60,50,42,98,91,73,29.90,29.73,8,1,8,0.03
2013-9-20,67,56,47,53,50,45,98,82,58,30.18,29.88,7,1,7,0.01
2013-9-21,66,58,48,61,55,46,97,91,81,30.31,30.18,4,0,4,0.00
2013-9-22,66,62,54,62,60,54,99,93,84,30.37,30.30,5,0,5,0.00
2013-9-23,66,59,52,60,57,51,99,93,81,30.33,30.11,2,0,2,0.00
2013-9-24,72,57,46,63,55,46,99,92,70,30.11,29.92,4,0,4,0.00
2013-9-25,72,62,54,64,58,53,99,89,68,29.92,29.82,4,0,4,0.02
2013-9-26,68,60,53,60,54,50,94,81,56,30.05,29.90,7,1,7,0.02
2013-9-27,65,55,47,53,50,46,98,85,63,30.05,29.92,6,1,6,0.00
2013-9-28,66,59,52,59,54,50,95,84,67,29.92,29.73,8,2,8,0.02
2013-9-29,66,60,57,56,54,53,90,82,70,29.74,29.70,9,2,9,0.02
2013-9-30,66,60,54,57,54,51,93,82,63,29.78,29.67,7,1,7,0.00
2013-10-1,64,58,51,58,53,50,96,86,74,29.82,29.75,7,1,7,0.00
2013-10-2,70,62,56,63,57,53,95,86,73,29.88,29.78,6,1,6,0.02
2013-10-3,66,60,53,64,59,52,99,95,89,29.87,29.70,8,1,8,0.10
2013-10-4,69,63,58,63,60,56,98,90,75,29.94,29.67,8,2,8,0.02
2013-10-5,66,59,53,60,56,52,97,90,77,30.25,29.94,4,0,4,0.00
2013-10-6,68,55,44,57,50,44,99,86,58,30.30,30.25,4,0,4,0.00
2013-10-7,68,57,46,59,54,45,99,89,69,30.30,30.24,4,0,4,0.00
2013-10-8,69,61,52,60,58,51,98,88,72,30.28,30.23,4,1,4,0.00
2013-10-9,64,56,47,58,50,40,95,82,65,30.24,29.99,12,2,12,0.00
2013-10-10,53,48,44,44,40,38,82,74,62,30.12,30.01,10,3,10,0.02
2013-10-11,56,52,47,53,49,40,96,88,73,30.12,29.95,13,4,13,0.31
2013-10-12,59,52,45,54,48,43,96,86,62,30.12,29.96,12,2,12,0.13
2013-10-13,53,50,47,52,49,46,98,96,94,30.01,29.77,9,1,9,0.54
2013-10-14,53,49,47,50,47,46,97,94,86,29.78,29.71,9,1,9,0.14
2013-10-15,55,49,43,50,47,42,97,92,82,29.96,29.75,6,1,6,0.00
2013-10-16,60,50,39,58,48,38,99,94,77,29.97,29.69,6,1,6,0.20
2013-10-17,65,56,49,57,53,49,97,89,75,30.01,29.81,7,2,7,0.03
2013-10-18,63,56,48,58,53,47,99,93,81,30.02,29.77,8,1,8,0.00
2013-10-19,63,58,52,61,56,51,97,94,86,29.77,29.63,6,1,6,0.06
2013-10-20,63,56,53,58,55,52,98,94,84,29.74,29.64,9,1,9,0.60
2013-10-21,64,60,54,60,57,54,98,92,83,29.75,29.60,9,2,9,0.03
2013-10-22,65,61,55,61,58,54,96,91,85,29.60,29.32,13,2,13,0.35
2013-10-23,63,57,45,57,53,44,97,87,68,29.86,29.25,12,2,12,0.21
2013-10-24,62,51,39,55,49,39,99,91,75,29.98,29.81,5,1,5,0.00
2013-10-25,66,60,55,61,57,53,98,89,80,29.81,29.59,9,2,9,0.06
2013-10-26,63,59,57,58,56,54,94,88,81,29.70,29.49,9,3,9,0.06
2013-10-27,62,56,52,56,52,48,97,86,66,29.49,29.21,12,3,12,0.56
2013-10-28,60,54,46,59,50,44,98,88,70,29.59,28.89,16,4,16,0.65
2013-10-29,56,48,40,47,43,39,96,85,61,30.07,29.59,12,2,12,0.00
2013-10-30,57,48,35,52,45,34,99,88,70,30.17,30.07,6,1,6,0.00
2013-10-31,56,54,53,54,52,51,97,93,87,30.07,29.93,7,1,7,0.11
2013-11-1,58,54,52,55,52,50,97,93,87,29.93,29.54,5,1,5,0.03
2013-11-2,60,52,47,54,48,43,99,86,71,29.58,29.39,14,2,14,0.02
2013-11-3,54,48,45,46,42,40,97,81,66,29.58,29.03,10,3,10,0.42
2013-11-4,50,44,37,47,41,36,98,88,70,29.50,29.00,12,2,12,0.21
2013-11-5,54,47,36,51,44,36,98,89,70,29.52,29.25,17,2,17,0.28
2013-11-6,60,54,48,57,52,44,98,92,84,29.55,29.47,10,2,10,0.12
2013-11-7,58,49,41,56,46,40,96,89,70,29.78,29.52,6,1,6,0.02
2013-11-8,53,44,37,51,43,37,99,97,92,29.78,29.58,8,0,8,0.36
2013-11-9,46,41,35,45,40,35,99,98,97,29.77,29.61,4,0,4,0.24
2013-11-10,49,41,33,43,38,32,98,90,66,30.27,29.62,8,1,8,0.02
2013-11-11,55,48,34,55,48,33,99,97,95,30.26,30.14,10,1,10,0.13
2013-11-12,55,49,36,55,47,36,99,95,79,30.51,30.14,6,0,6,0.08
2013-11-13,50,41,31,44,38,31,99,92,76,30.57,30.21,4,0,4,0.00
2013-11-14,50,46,40,46,41,36,92,84,72,30.41,30.12,12,3,12,0.02
2013-11-15,49,40,34,41,36,32,97,85,69,30.53,30.41,6,1,6,0.00
2013-11-16,48,40,30,44,38,29,99,94,83,30.53,30.38,6,0,6,0.01
2013-11-17,49,47,45,47,45,44,97,94,89,30.38,30.01,4,0,4,0.02
2013-11-18,49,47,44,48,46,41,98,95,88,30.01,29.76,6,0,6,0.03
2013-11-19,44,38,30,41,33,27,96,85,67,30.06,29.79,9,1,9,0.00
2013-11-20,45,37,28,43,35,25,96,92,84,30.04,29.40,13,2,13,0.18
2013-11-21,47,41,37,40,37,35,96,86,68,29.93,29.42,16,4,16,0.02
2013-11-22,46,41,37,39,37,34,95,85,71,30.16,29.93,9,3,9,0.00
2013-11-23,46,41,34,40,38,33,98,90,79,30.31,30.16,6,2,6,0.01
2013-11-24,47,44,40,44,40,37,92,86,75,30.57,30.31,8,2,8,0.01
2013-11-25,45,42,40,39,38,36,92,86,78,30.68,30.56,6,2,6,0.00
2013-11-26,45,41,31,40,36,29,95,83,72,30.72,30.58,4,1,4,0.00
2013-11-27,51,46,42,48,44,39,97,94,87,30.58,30.48,4,0,4,0.01
2013-11-28,50,48,46,47,46,44,95,92,87,30.57,30.52,4,0,4,0.00
2013-11-29,50,47,43,45,42,38,95,84,70,30.52,30.18,13,3,13,0.00
2013-11-30,48,43,34,42,38,32,94,83,77,30.47,30.19,9,2,9,0.00
2013-12-1,49,42,32,44,40,31,97,91,82,30.56,30.44,4,0,4,0.00
2013-12-2,50,46,40,44,42,37,95,88,77,30.57,30.45,4,0,4,0.00
2013-12-3,44,43,41,40,38,36,94,82,78,30.45,30.33,4,0,4,0.00
2013-12-4,48,41,32,45,37,31,97,87,69,30.50,30.30,4,1,4,0.00
2013-12-5,51,41,29,46,36,28,98,83,59,30.48,30.02,16,4,16,0.02
2013-12-6,46,42,35,42,36,31,93,81,70,30.38,30.24,10,2,10,0.00
2013-12-7,48,45,42,45,43,41,95,91,82,30.36,30.27,5,1,5,0.00
2013-12-8,53,46,37,47,43,36,97,91,80,30.32,30.25,5,1,5,0.00
2013-12-9,52,43,34,48,42,33,99,96,87,30.42,30.31,4,0,4,0.01
2013-12-10,47,38,31,46,37,30,99,96,91,30.47,30.41,1,0,1,0.01
2013-12-11,38,33,29,38,33,29,99,98,97,30.44,30.31,1,0,1,0.01
2013-12-12,46,38,28,46,38,28,100,99,99,30.31,30.19,2,0,1,0.00
2013-12-13,54,49,44,50,48,43,100,95,83,30.20,30.02,8,1,8,0.13
2013-12-14,52,46,36,49,43,35,98,91,77,30.30,30.05,13,2,13,0.05
2013-12-15,54,52,44,53,50,43,98,96,91,30.17,29.99,12,3,12,0.23
2013-12-16,55,52,44,53,51,43,98,96,90,30.13,29.94,9,3,9,0.55
2013-12-17,45,42,39,44,41,39,98,96,92,30.27,29.97,5,0,5,0.27
2013-12-18,50,47,40,49,45,39,99,94,87,29.98,29.30,21,3,21,0.28
2013-12-19,48,43,37,47,40,36,97,88,73,29.86,29.32,8,1,8,0.20
2013-12-20,51,43,36,47,40,35,97,89,79,30.18,29.86,12,3,12,0.01
2013-12-21,54,51,49,51,49,43,96,92,77,30.06,29.71,15,4,15,0.35
2013-12-22,51,46,40,45,41,36,89,82,68,29.93,29.72,14,3,14,0.35
2013-12-23,53,48,40,51,46,36,96,92,86,29.92,28.87,20,6,20,0.80
2013-12-24,53,46,41,51,44,39,96,91,83,28.99,28.79,21,3,21,0.61
2013-12-25,44,39,34,41,38,34,99,95,88,29.17,28.93,8,0,8,0.08
2013-12-26,46,38,34,43,38,34,99,97,81,29.50,29.17,13,1,13,0.01
2013-12-27,52,48,44,51,43,37,97,84,73,29.26,29.01,20,5,20,0.15
2013-12-28,46,39,31,40,36,30,98,88,77,29.71,29.26,5,1,5,0.00
2013-12-29,46,37,30,43,35,29,99,94,82,30.09,29.71,6,1,6,0.01
2013-12-30,51,49,40,48,46,40,98,91,84,30.01,29.67,15,5,15,0.21
2013-12-31,51,46,41,48,44,39,98,93,87,29.85,29.55,16,2,16,0.22
2014-1-1,52,48,43,50,46,41,97,94,86,29.59,29.04,20,5,20,0.50
2014-1-2,51,47,42,49,45,41,97,91,80,29.46,29.08,14,2,14,0.25